createdAt,value
2023-11-01T00:00:01.578Z,6.71
2023-11-01T00:15:02.241Z,6.32
2023-11-01T00:30:01.584Z,6
2023-11-01T00:45:01.792Z,6.13
2023-11-01T01:00:02.747Z,5.96
2023-11-01T01:15:01.520Z,5.9
2023-11-01T01:30:02.385Z,5.76
2023-11-01T01:45:01.514Z,5.65
2023-11-01T02:00:01.562Z,5.4
2023-11-01T02:15:02.080Z,5.32
2023-11-01T02:30:01.501Z,5.9
2023-11-01T02:45:02.372Z,4.82
2023-11-01T03:00:01.992Z,4.84
2023-11-01T03:15:01.540Z,4.71
2023-11-01T03:30:01.961Z,4.5
2023-11-01T03:45:02.123Z,4.4
2023-11-01T04:00:01.416Z,4.21
2023-11-01T04:15:01.578Z,4.3
2023-11-01T04:30:02.687Z,4.36
2023-11-01T04:45:02.142Z,3.86
2023-11-01T05:00:01.651Z,3.81
2023-11-01T05:15:02.215Z,3.94
2023-11-01T05:30:03.060Z,4.1
2023-11-01T05:45:02.213Z,3.64
2023-11-01T06:00:01.806Z,3.5
2023-11-01T06:15:01.763Z,3.26
2023-11-01T06:30:01.776Z,3.57
2023-11-01T06:45:02.011Z,3.7
2023-11-01T07:00:02.371Z,3.73
2023-11-01T07:15:02.256Z,3.92
2023-11-01T07:30:01.859Z,4.73
2023-11-01T07:45:01.984Z,7.34
2023-11-01T08:00:02.277Z,10.1
2023-11-01T08:15:02.309Z,8.81
2023-11-01T08:30:01.555Z,8.31
2023-11-01T08:45:02.596Z,7.98
2023-11-01T09:00:02.133Z,7.13
2023-11-01T09:15:01.664Z,8.14
2023-11-01T09:30:02.178Z,8.81
2023-11-01T09:45:02.219Z,10.61
2023-11-01T10:00:02.337Z,9.93
2023-11-01T10:15:02.438Z,10.57
2023-11-01T10:30:02.567Z,11.72
2023-11-01T10:45:01.593Z,10.72
2023-11-01T11:00:01.889Z,11.88
2023-11-01T11:15:02.983Z,11.22
2023-11-01T11:30:01.523Z,11.68
2023-11-01T11:45:01.775Z,10.79
2023-11-01T12:00:02.086Z,10.53
2023-11-01T12:15:02.251Z,10.35
2023-11-01T12:30:02.326Z,10.57
2023-11-01T12:45:02.231Z,11.9
2023-11-01T13:00:02.287Z,12.72
2023-11-01T13:15:02.402Z,11.6
2023-11-01T13:30:02.498Z,10.98
2023-11-01T13:45:02.643Z,10.88
2023-11-01T14:00:01.632Z,10.56
2023-11-01T14:15:03.145Z,10.22
2023-11-01T14:30:03.096Z,9.77
2023-11-01T14:45:01.588Z,9.84
2023-11-01T15:00:01.886Z,9.56
2023-11-01T15:15:01.972Z,9.46
2023-11-01T15:30:02.154Z,9.18
2023-11-01T15:45:01.806Z,8.89
2023-11-01T16:00:02.034Z,8.81
2023-11-01T16:15:02.189Z,8.61
2023-11-01T16:30:02.324Z,8.47
2023-11-01T16:45:02.827Z,8.31
2023-11-01T17:00:02.545Z,8.31
2023-11-01T17:15:02.634Z,8.11
2023-11-01T17:30:02.865Z,8.7
2023-11-01T17:45:01.368Z,8.11
2023-11-01T18:00:01.679Z,7.96
2023-11-01T18:15:01.430Z,7.82
2023-11-01T18:30:01.727Z,7.82
2023-11-01T18:45:01.993Z,7.57
2023-11-01T19:00:02.327Z,7.65
2023-11-01T19:15:01.867Z,7.51
2023-11-01T19:30:02.187Z,6.92
2023-11-01T19:45:02.094Z,6.8
2023-11-01T20:00:02.407Z,6.92
2023-11-01T20:15:02.487Z,6.59
2023-11-01T20:30:01.663Z,6.48
2023-11-01T20:45:01.993Z,6.3
2023-11-01T21:00:02.999Z,6.11
2023-11-01T21:15:01.430Z,5.9
2023-11-01T21:30:02.312Z,5.36
2023-11-01T21:45:02.123Z,5.59
2023-11-01T22:00:01.689Z,5.73
2023-11-01T22:15:02.282Z,5.44
2023-11-01T22:30:01.885Z,5.36
2023-11-01T22:45:02.773Z,5.44
2023-11-01T23:00:02.359Z,4.92
2023-11-01T23:15:02.262Z,4.88
2023-11-01T23:30:02.448Z,5.1
2023-11-01T23:45:02.444Z,4.67
